Time;durP1;ratioP1;P1;durP2;ratioP2;P2;SDS_P1;SDS_P2;PMS_P1;PMS_P2;Temp;Humidity;BMP_temperature;BMP_pressure;BME280_temperature;BME280_humidity;BME280_pressure;Samples;Min_cycle;Max_cycle;Signal;HPM_P1;HPM_P2
2023/01/08 00:00:55;;;;;;;17.63;4.70;;;;;;;8.72;100.00;100179.94;5053531;28;20071;-71
2023/01/08 00:03:21;;;;;;;14.45;4.60;;;;;;;8.63;100.00;100175.53;5053136;28;20037;-73
2023/01/08 00:05:46;;;;;;;16.42;4.30;;;;;;;8.75;100.00;100174.66;5053631;28;20484;-72
2023/01/08 00:08:12;;;;;;;16.35;4.60;;;;;;;8.77;100.00;100177.34;5053052;28;20075;-71
2023/01/08 00:10:38;;;;;;;16.60;4.70;;;;;;;8.74;100.00;100186.13;5053379;28;20025;-71
2023/01/08 00:13:04;;;;;;;16.60;4.70;;;;;;;8.69;100.00;100193.13;5053405;28;20033;-71
2023/01/08 00:15:30;;;;;;;15.20;4.63;;;;;;;8.77;100.00;100195.78;5052904;28;20501;-73
2023/01/08 00:17:56;;;;;;;16.10;4.40;;;;;;;8.76;100.00;100194.03;5052972;28;20057;-72
2023/01/08 00:20:22;;;;;;;16.63;4.60;;;;;;;8.76;100.00;100186.13;5053034;28;20036;-72
2023/01/08 00:22:48;;;;;;;15.85;4.53;;;;;;;8.76;100.00;100183.47;5052882;28;20056;-75
2023/01/08 00:25:13;;;;;;;16.15;4.50;;;;;;;8.84;100.00;100181.72;5052772;28;20036;-71
2023/01/08 00:27:38;;;;;;;17.40;4.72;;;;;;;8.81;100.00;100173.81;5053071;28;20031;-71
2023/01/08 00:30:04;;;;;;;15.25;4.57;;;;;;;8.80;100.00;100167.66;5052727;28;20024;-71
2023/01/08 00:32:30;;;;;;;17.38;4.53;;;;;;;8.80;100.00;100167.66;5052621;28;20154;-71
2023/01/08 00:34:55;;;;;;;15.40;4.68;;;;;;;8.81;100.00;100160.63;5052825;28;20032;-72
2023/01/08 00:37:20;;;;;;;14.63;4.50;;;;;;;8.84;100.00;100157.97;5051896;28;20029;-71
2023/01/08 00:39:46;;;;;;;17.80;4.90;;;;;;;8.86;100.00;100153.63;5052813;28;20030;-71
2023/01/08 00:42:11;;;;;;;14.45;4.60;;;;;;;8.80;100.00;100151.84;5052459;28;20037;-73
2023/01/08 00:44:37;;;;;;;17.98;4.55;;;;;;;8.86;100.00;100143.94;5052505;28;20395;-72
2023/01/08 00:47:02;;;;;;;14.77;4.53;;;;;;;8.88;100.00;100138.66;5052665;28;20396;-73
2023/01/08 00:49:28;;;;;;;16.15;4.60;;;;;;;8.85;100.00;100139.56;5052413;28;20086;-71
2023/01/08 00:51:53;;;;;;;17.38;4.80;;;;;;;8.80;100.00;100127.25;4991828;28;1230209;-72
2023/01/08 00:54:18;;;;;;;16.45;4.75;;;;;;;8.75;100.00;100131.63;5053397;28;20033;-72
2023/01/08 00:56:44;;;;;;;16.90;4.97;;;;;;;8.73;100.00;100127.22;5053211;28;20033;-71
2023/01/08 00:59:09;;;;;;;18.65;5.13;;;;;;;8.72;100.00;100130.78;5053389;28;20033;-72
2023/01/08 01:01:35;;;;;;;15.60;5.05;;;;;;;8.76;100.00;100133.41;5049197;28;20029;-74
2023/01/08 01:04:00;;;;;;;18.20;5.20;;;;;;;8.73;100.00;100126.38;5053015;28;20040;-72
2023/01/08 01:06:26;;;;;;;17.63;5.40;;;;;;;8.79;100.00;100126.38;5052985;28;20060;-73
2023/01/08 01:08:51;;;;;;;17.17;5.00;;;;;;;8.73;100.00;100121.97;5035313;28;20036;-72
2023/01/08 01:11:20;;;;;;;17.58;5.10;;;;;;;8.75;100.00;100124.59;5035359;28;20479;-77
2023/01/08 01:13:46;;;;;;;16.15;5.20;;;;;;;8.69;100.00;100114.97;5053031;28;20029;-72
2023/01/08 01:16:11;;;;;;;17.70;5.13;;;;;;;8.72;100.00;100112.31;5053027;28;20035;-72
2023/01/08 01:18:37;;;;;;;17.20;5.13;;;;;;;8.79;100.00;100109.69;5052867;28;20033;-77
2023/01/08 01:21:09;;;;;;;16.98;5.03;;;;;;;8.72;100.00;100111.44;5053217;28;20051;-72
2023/01/08 01:23:34;;;;;;;17.53;5.47;;;;;;;8.68;100.00;100115.84;5052903;28;20048;-72
2023/01/08 01:25:59;;;;;;;17.40;5.20;;;;;;;8.71;100.00;100109.69;5052633;28;20287;-73
2023/01/08 01:28:24;;;;;;;17.65;5.30;;;;;;;8.67;100.00;100108.78;5052579;28;20036;-72
2023/01/08 01:30:54;;;;;;;17.55;5.20;;;;;;;8.67;100.00;100108.78;5034856;28;20025;-75
2023/01/08 01:33:20;;;;;;;17.00;4.90;;;;;;;8.78;100.00;100102.66;5052479;28;20039;-72
2023/01/08 01:35:45;;;;;;;17.45;5.30;;;;;;;8.73;100.00;100107.91;5052528;28;20025;-72
2023/01/08 01:38:10;;;;;;;18.02;5.25;;;;;;;8.78;100.00;100095.63;5052667;28;20116;-72
2023/01/08 01:40:41;;;;;;;18.70;5.35;;;;;;;8.79;100.00;100101.78;5052572;28;20053;-75
2023/01/08 01:43:13;;;;;;;17.02;4.95;;;;;;;8.77;100.00;100114.09;5048454;28;20044;-72
2023/01/08 01:45:41;;;;;;;17.77;5.13;;;;;;;8.73;100.00;100129.88;5049217;28;20025;-79
2023/01/08 01:48:12;;;;;;;17.38;5.20;;;;;;;8.55;100.00;100128.09;5048306;28;20051;-71
2023/01/08 01:50:48;;;;;;;16.85;4.90;;;;;;;8.49;100.00;100132.47;5047996;28;20032;-71
2023/01/08 01:53:29;;;;;;;18.83;4.85;;;;;;;8.30;100.00;100128.91;5049172;28;20048;-72
2023/01/08 01:55:56;;;;;;;16.58;5.10;;;;;;;8.16;100.00;100128.88;5052183;28;20036;-71
2023/01/08 01:58:27;;;;;;;18.77;5.00;;;;;;;8.02;100.00;100134.09;5052487;28;20102;-72
2023/01/08 02:00:55;;;;;;;16.02;4.20;;;;;;;7.98;100.00;100135.84;5052330;28;20025;-72
2023/01/08 02:03:24;;;;;;;15.52;4.20;;;;;;;7.86;100.00;100125.25;5052328;28;20094;-72
2023/01/08 02:06:27;;;;;;;15.27;4.32;;;;;;;7.67;100.00;100142.72;5052399;28;20055;-71
2023/01/08 02:08:52;;;;;;;16.58;3.80;;;;;;;7.56;100.00;100145.31;5038243;28;20039;-71
2023/01/08 02:11:38;;;;;;;13.35;3.30;;;;;;;7.43;100.00;100151.38;5052443;28;20154;-74
2023/01/08 02:14:25;;;;;;;13.52;3.08;;;;;;;7.26;100.00;100120.56;5052577;28;20124;-71
2023/01/08 02:17:02;;;;;;;14.23;2.80;;;;;;;7.13;100.00;100118.72;5050365;28;20078;-71
2023/01/08 02:19:36;;;;;;;9.65;2.47;;;;;;;6.88;100.00;100110.66;5052499;28;20040;-72
2023/01/08 02:22:09;;;;;;;12.27;2.60;;;;;;;6.73;100.00;100105.31;5052104;28;20029;-71
2023/01/08 02:24:46;;;;;;;9.18;2.55;;;;;;;6.69;100.00;100091.25;5051976;28;20036;-72
2023/01/08 02:27:14;;;;;;;14.07;2.40;;;;;;;6.60;100.00;100086.81;5030955;28;20041;-71
2023/01/08 02:29:39;;;;;;;13.43;2.40;;;;;;;6.53;100.00;100095.50;5052313;28;20025;-72
2023/01/08 02:32:05;;;;;;;10.88;2.50;;;;;;;6.52;100.00;100101.59;5051955;28;20495;-71
2023/01/08 02:34:31;;;;;;;15.90;2.60;;;;;;;6.48;100.00;100106.81;5051933;28;20045;-72
2023/01/08 02:36:57;;;;;;;16.20;2.60;;;;;;;6.42;100.00;100097.13;5052134;28;20033;-73
2023/01/08 02:39:25;;;;;;;15.07;2.80;;;;;;;6.49;100.00;100093.69;5051867;28;20047;-73
2023/01/08 02:42:10;;;;;;;13.77;2.42;;;;;;;6.40;100.00;100101.50;5051784;28;20460;-77
2023/01/08 02:44:40;;;;;;;14.98;2.55;;;;;;;6.42;100.00;100098.03;5051874;28;20042;-72
2023/01/08 02:47:14;;;;;;;13.43;2.50;;;;;;;6.43;100.00;100105.03;5047928;28;20056;-75
2023/01/08 02:49:45;;;;;;;11.82;2.40;;;;;;;6.40;100.00;100104.13;5048413;28;20033;-72
2023/01/08 02:52:12;;;;;;;14.20;2.40;;;;;;;6.41;100.00;100098.03;5048279;28;20049;-73
2023/01/08 02:54:41;;;;;;;13.13;2.60;;;;;;;6.43;100.00;100091.03;5048280;28;20479;-72
2023/01/08 02:57:12;;;;;;;14.98;2.60;;;;;;;6.38;100.00;100095.38;5047892;28;20033;-73
2023/01/08 02:59:41;;;;;;;14.70;2.55;;;;;;;6.35;100.00;100087.44;5047895;28;20025;-74
2023/01/08 03:02:07;;;;;;;14.70;2.50;;;;;;;6.26;100.00;100080.34;5051196;28;20013;-72
2023/01/08 03:04:38;;;;;;;16.15;2.60;;;;;;;6.22;100.00;100076.84;5055532;28;20032;-73
2023/01/08 03:07:04;;;;;;;13.95;2.50;;;;;;;6.20;100.00;100078.53;5055661;28;20047;-76
2023/01/08 03:09:29;;;;;;;13.13;2.47;;;;;;;6.18;100.00;100071.53;5055441;28;20475;-72
2023/01/08 03:12:10;;;;;;;12.27;2.40;;;;;;;6.17;100.00;100078.53;5037403;28;20035;-75
2023/01/08 03:14:44;;;;;;;13.23;2.53;;;;;;;6.14;100.00;100086.38;5055313;28;20035;-72
2023/01/08 03:17:31;;;;;;;15.40;2.75;;;;;;;6.15;100.00;100076.78;5051656;28;20079;-72
2023/01/08 03:20:09;;;;;;;13.57;2.53;;;;;;;6.15;100.00;100085.50;5054018;28;20025;-71
2023/01/08 03:22:38;;;;;;;14.40;2.60;;;;;;;6.12;100.00;100074.97;5054975;28;20083;-72
2023/01/08 03:25:05;;;;;;;14.85;2.50;;;;;;;6.13;100.00;100071.50;5054919;28;20083;-71
2023/01/08 03:27:36;;;;;;;13.85;2.55;;;;;;;6.11;100.00;100081.09;5037435;28;20395;-71
2023/01/08 03:30:03;;;;;;;13.52;2.40;;;;;;;6.11;100.00;100076.72;5055059;28;20025;-71
2023/01/08 03:32:31;;;;;;;13.95;2.50;;;;;;;6.11;100.00;100071.47;5054614;28;20033;-71
2023/01/08 03:34:59;;;;;;;13.25;2.45;;;;;;;6.12;100.00;100074.97;5036829;28;20025;-71
2023/01/08 03:37:31;;;;;;;10.00;2.40;;;;;;;6.10;100.00;100072.34;5054972;28;20036;-72
2023/01/08 03:40:06;;;;;;;12.77;2.67;;;;;;;6.09;100.00;100070.56;5054657;28;20464;-71
2023/01/08 03:42:32;;;;;;;14.68;2.75;;;;;;;6.13;100.00;100068.88;5054537;28;20533;-71
2023/01/08 03:45:01;;;;;;;13.75;2.50;;;;;;;6.09;100.00;100067.09;5054472;28;20033;-72
2023/01/08 03:47:29;;;;;;;15.45;2.75;;;;;;;6.14;100.00;100072.38;5036766;28;20511;-71
2023/01/08 03:49:59;;;;;;;14.48;2.67;;;;;;;6.16;100.00;100061.03;5054452;28;20052;-71
2023/01/08 03:52:26;;;;;;;13.95;2.75;;;;;;;6.13;100.00;100073.22;5054051;28;20098;-72
2023/01/08 03:54:52;;;;;;;15.90;2.70;;;;;;;6.19;100.00;100058.44;5054522;28;20048;-72
2023/01/08 03:57:17;;;;;;;14.88;2.50;;;;;;;6.15;100.00;100056.63;5036404;28;20029;-75
2023/01/08 03:59:42;;;;;;;14.02;2.72;;;;;;;6.12;100.00;100051.38;5036431;28;20029;-72
2023/01/08 04:02:08;;;;;;;15.05;2.78;;;;;;;6.17;100.00;100054.91;5054504;28;20022;-71
2023/01/08 04:04:33;;;;;;;16.05;2.80;;;;;;;6.20;100.00;100052.28;5054155;28;20033;-72
2023/01/08 04:06:59;;;;;;;15.05;2.97;;;;;;;6.22;100.00;100058.47;5054114;28;20116;-71
2023/01/08 04:09:24;;;;;;;15.13;2.92;;;;;;;6.20;100.00;100054.06;5036371;28;20468;-72
2023/01/08 04:11:50;;;;;;;15.68;3.08;;;;;;;6.14;100.00;100046.13;5035297;28;20040;-72
2023/01/08 04:14:15;;;;;;;11.15;2.80;;;;;;;6.14;100.00;100035.63;5054138;28;20025;-72
2023/01/08 04:16:41;;;;;;;14.48;3.00;;;;;;;6.09;100.00;100032.97;5054009;28;20380;-71
2023/01/08 04:19:06;;;;;;;16.27;3.15;;;;;;;6.04;100.00;100030.31;5053880;28;20087;-71
2023/01/08 04:21:31;;;;;;;16.63;3.10;;;;;;;6.10;100.00;100032.09;5054049;28;20029;-71
2023/01/08 04:23:57;;;;;;;16.02;3.38;;;;;;;6.06;100.00;100035.56;5053812;28;20033;-72
2023/01/08 04:26:22;;;;;;;18.65;3.40;;;;;;;6.14;100.00;100044.38;5053729;28;20036;-72
2023/01/08 04:28:47;;;;;;;16.95;3.50;;;;;;;6.21;100.00;100051.44;5053902;28;20054;-72
2023/01/08 04:31:13;;;;;;;16.75;3.67;;;;;;;6.26;100.00;100036.63;5035883;28;20448;-72
2023/01/08 04:33:38;;;;;;;15.70;3.35;;;;;;;6.36;100.00;100028.81;5053801;28;20033;-72
2023/01/08 04:36:04;;;;;;;14.50;3.28;;;;;;;6.33;100.00;100029.66;5053690;28;20035;-72
2023/01/08 04:38:30;;;;;;;15.63;3.53;;;;;;;6.33;100.00;100026.19;5053533;28;20025;-72
2023/01/08 04:40:57;;;;;;;15.60;3.63;;;;;;;6.27;100.00;100017.38;5053401;28;20035;-73
2023/01/08 04:43:22;;;;;;;14.88;3.28;;;;;;;6.30;100.00;100026.16;5053495;28;20029;-75
2023/01/08 04:45:48;;;;;;;16.15;3.40;;;;;;;6.28;100.00;100031.41;5053359;28;20053;-78
2023/01/08 04:48:13;;;;;;;16.05;3.38;;;;;;;6.34;100.00;100017.44;5053310;28;20033;-73
2023/01/08 04:50:38;;;;;;;13.77;3.30;;;;;;;6.30;100.00;100018.28;5053603;28;20036;-73
2023/01/08 04:53:04;;;;;;;13.30;3.38;;;;;;;6.24;100.00;100022.59;5052887;28;20532;-72
2023/01/08 04:55:29;;;;;;;14.02;3.40;;;;;;;6.28;100.00;100026.16;5053373;28;20037;-73
2023/01/08 04:57:54;;;;;;;15.38;3.50;;;;;;;6.25;100.00;100031.38;5053386;28;20471;-73
2023/01/08 05:00:20;;;;;;;15.30;3.30;;;;;;;6.29;100.00;100027.88;5053095;28;20395;-72
2023/01/08 05:02:45;;;;;;;13.40;3.20;;;;;;;6.27;100.00;100029.63;5053333;28;20029;-73
2023/01/08 05:05:10;;;;;;;15.65;3.55;;;;;;;6.21;100.00;100024.31;5053084;28;20083;-73
2023/01/08 05:07:36;;;;;;;11.73;3.10;;;;;;;6.19;100.00;100037.44;5052925;28;20037;-75
2023/01/08 05:10:01;;;;;;;14.35;3.13;;;;;;;6.16;100.00;100037.41;5053165;28;20037;-73
2023/01/08 05:12:26;;;;;;;10.65;2.80;;;;;;;6.15;100.00;100029.53;5052799;28;20503;-73
2023/01/08 05:14:52;;;;;;;11.13;2.70;;;;;;;6.22;100.00;100032.22;5052799;28;20123;-78
2023/01/08 05:17:17;;;;;;;9.68;2.67;;;;;;;6.24;100.00;100025.22;5052969;28;20108;-72
2023/01/08 05:19:42;;;;;;;11.75;2.65;;;;;;;6.33;100.00;100041.94;5052774;28;20036;-73
2023/01/08 05:22:08;;;;;;;8.25;2.50;;;;;;;6.30;100.00;100037.53;5052812;28;20021;-72
2023/01/08 05:24:33;;;;;;;9.05;2.60;;;;;;;6.31;100.00;100020.03;5052763;28;20042;-72
2023/01/08 05:26:59;;;;;;;11.15;2.40;;;;;;;6.30;100.00;100015.66;5052734;28;20056;-73
2023/01/08 05:29:24;;;;;;;6.70;2.28;;;;;;;6.31;100.00;100017.44;5035094;28;20048;-72
2023/01/08 05:31:49;;;;;;;11.30;2.58;;;;;;;6.32;100.00;100013.91;5052706;28;20028;-72
2023/01/08 05:34:15;;;;;;;10.57;2.35;;;;;;;6.38;100.00;100003.47;5052494;28;20035;-72
2023/01/08 05:36:40;;;;;;;11.60;2.72;;;;;;;6.34;100.00;100009.56;5053058;28;20112;-72
2023/01/08 05:39:05;;;;;;;9.43;2.53;;;;;;;6.30;100.00;99994.66;5052734;28;20025;-72
2023/01/08 05:41:31;;;;;;;12.43;2.50;;;;;;;6.30;100.00;100013.03;5052462;28;20022;-72
2023/01/08 05:43:56;;;;;;;14.70;2.70;;;;;;;6.21;100.00;100009.44;5052626;28;20025;-72
2023/01/08 05:46:21;;;;;;;11.02;2.50;;;;;;;6.19;100.00;100000.69;5052455;28;20468;-72
2023/01/08 05:48:47;;;;;;;13.15;2.30;;;;;;;6.06;100.00;100010.19;5052456;28;20060;-72
2023/01/08 05:51:12;;;;;;;12.30;2.70;;;;;;;6.07;100.00;100013.69;5052672;28;20060;-74
2023/01/08 05:53:37;;;;;;;14.10;2.63;;;;;;;5.99;100.00;100010.13;5052605;28;20088;-77
2023/01/08 05:56:06;;;;;;;11.45;2.60;;;;;;;5.92;100.00;100012.63;5052331;28;20110;-75
2023/01/08 05:58:31;;;;;;;11.13;2.60;;;;;;;5.89;100.00;100004.75;5052494;28;20040;-73
2023/01/08 06:01:07;;;;;;;11.60;2.60;;;;;;;5.87;100.00;100013.47;5052283;28;20029;-72
2023/01/08 06:03:33;;;;;;;11.27;2.50;;;;;;;5.83;100.00;100009.94;5052483;28;20032;-73
2023/01/08 06:06:03;;;;;;;10.73;2.60;;;;;;;5.75;100.00;100016.81;5052431;28;20091;-73
2023/01/08 06:08:29;;;;;;;14.68;2.72;;;;;;;5.68;100.00;100025.50;5052206;28;20026;-74
2023/01/08 06:10:59;;;;;;;14.18;2.83;;;;;;;5.69;100.00;100019.38;5052245;28;20036;-72
2023/01/08 06:13:25;;;;;;;14.32;2.70;;;;;;;5.73;100.00;100024.69;5052251;28;20029;-73
2023/01/08 06:15:50;;;;;;;15.23;2.88;;;;;;;5.66;100.00;100029.84;5052171;28;20028;-73
2023/01/08 06:18:15;;;;;;;13.63;2.70;;;;;;;5.68;100.00;100033.34;5052080;28;20108;-73
2023/01/08 06:20:41;;;;;;;16.00;2.75;;;;;;;5.66;100.00;100022.84;5052351;28;20060;-72
2023/01/08 06:23:07;;;;;;;12.48;2.50;;;;;;;5.62;100.00;100033.28;5052061;28;20033;-78
2023/01/08 06:25:33;;;;;;;13.30;2.88;;;;;;;5.55;100.00;100022.75;5052076;28;20052;-76
2023/01/08 06:27:58;;;;;;;12.38;2.50;;;;;;;5.53;100.00;100032.34;5052238;28;20171;-72
2023/01/08 06:30:23;;;;;;;11.60;2.53;;;;;;;5.50;100.00;100034.91;5052005;28;20067;-73
2023/01/08 06:32:49;;;;;;;14.45;2.70;;;;;;;5.61;100.00;100034.16;5051974;28;20029;-73
2023/01/08 06:35:14;;;;;;;14.77;2.67;;;;;;;5.52;100.00;100045.41;5052734;28;20025;-73
2023/01/08 06:37:39;;;;;;;11.98;2.40;;;;;;;5.44;100.00;100045.31;5055840;28;20431;-73
2023/01/08 06:40:05;;;;;;;13.32;2.53;;;;;;;5.44;100.00;100040.06;5055753;28;20107;-73
2023/01/08 06:42:31;;;;;;;10.93;2.50;;;;;;;5.39;100.00;100044.41;5055755;28;20120;-73
2023/01/08 06:44:56;;;;;;;13.32;2.60;;;;;;;5.39;100.00;100055.75;5055646;28;20032;-73
2023/01/08 06:47:21;;;;;;;17.67;2.70;;;;;;;5.37;100.00;100053.97;5055829;28;20079;-73
2023/01/08 06:49:47;;;;;;;15.23;2.60;;;;;;;5.40;100.00;100048.75;5055613;28;20029;-74
2023/01/08 06:52:12;;;;;;;16.38;2.80;;;;;;;5.31;100.00;100053.91;5055368;28;20049;-73
2023/01/08 06:54:37;;;;;;;18.27;3.05;;;;;;;5.35;100.00;100053.06;5055756;28;20121;-73
2023/01/08 06:57:03;;;;;;;15.75;3.00;;;;;;;5.33;100.00;100058.31;5055440;28;20040;-73
2023/01/08 06:59:28;;;;;;;16.30;3.00;;;;;;;5.33;100.00;100057.41;5055440;28;20040;-73
2023/01/08 07:01:53;;;;;;;15.68;2.95;;;;;;;5.32;100.00;100053.03;5055645;28;20025;-72
2023/01/08 07:04:19;;;;;;;16.13;2.85;;;;;;;5.37;100.00;100052.25;5055355;28;20025;-76
2023/01/08 07:06:45;;;;;;;14.77;2.80;;;;;;;5.36;100.00;100054.84;5055289;28;20075;-72
2023/01/08 07:09:14;;;;;;;19.63;3.20;;;;;;;5.34;100.00;100051.31;5055477;28;20037;-72
2023/01/08 07:11:40;;;;;;;19.25;3.20;;;;;;;5.33;100.00;100052.16;5051225;28;20048;-75
2023/01/08 07:14:06;;;;;;;19.45;3.28;;;;;;;5.26;100.00;100050.31;5055090;28;20035;-72
2023/01/08 07:16:31;;;;;;;19.23;3.92;;;;;;;5.32;100.00;100045.19;5055316;28;20033;-72
2023/01/08 07:18:57;;;;;;;18.77;3.20;;;;;;;5.27;100.00;100037.25;5055067;28;20028;-72
2023/01/08 07:21:22;;;;;;;21.25;3.40;;;;;;;5.26;100.00;100034.59;5055089;28;20468;-73
2023/01/08 07:23:48;;;;;;;17.77;3.08;;;;;;;5.19;100.00;100045.00;5055194;28;20025;-72
2023/01/08 07:26:13;;;;;;;17.17;3.08;;;;;;;5.31;100.00;100040.78;5054954;28;20045;-74
2023/01/08 07:28:39;;;;;;;19.77;3.10;;;;;;;5.27;100.00;100041.59;5050881;28;20033;-72
2023/01/08 07:31:05;;;;;;;19.70;3.20;;;;;;;5.23;100.00;100051.19;5054994;28;20124;-71
2023/01/08 07:33:31;;;;;;;21.73;3.47;;;;;;;5.16;100.00;100052.81;5054711;28;20116;-72
2023/01/08 07:35:56;;;;;;;20.38;3.30;;;;;;;5.13;100.00;100052.78;5054955;28;20024;-72
2023/01/08 07:38:22;;;;;;;15.63;3.03;;;;;;;5.14;100.00;100044.06;5054705;28;20033;-72
2023/01/08 07:40:48;;;;;;;19.10;3.10;;;;;;;5.05;100.00;100047.44;5054651;28;20017;-77
2023/01/08 07:43:14;;;;;;;17.55;3.17;;;;;;;4.99;100.00;100051.72;5054681;28;20116;-73
2023/01/08 07:45:40;;;;;;;21.45;3.30;;;;;;;4.91;100.00;100042.84;5046108;28;20033;-75
2023/01/08 07:48:05;;;;;;;18.92;3.17;;;;;;;4.93;100.00;100051.63;5057864;28;20036;-80
2023/01/08 07:50:31;;;;;;;17.90;3.20;;;;;;;5.00;100.00;100045.63;5060211;28;20468;-82
2023/01/08 07:52:58;;;;;;;17.42;2.92;;;;;;;5.00;100.00;100045.63;5035340;28;20053;-82
2023/01/08 07:55:24;;;;;;;16.15;2.90;;;;;;;5.02;100.00;100038.66;5058153;28;20036;-78
2023/01/08 07:57:49;;;;;;;18.77;3.20;;;;;;;5.05;100.00;100042.22;5055721;28;20033;-76
2023/01/08 08:00:15;;;;;;;16.67;3.00;;;;;;;5.09;100.00;100044.88;5056300;28;20112;-79
2023/01/08 08:02:40;;;;;;;19.23;3.00;;;;;;;5.11;100.00;100036.19;5053254;28;20108;-75
2023/01/08 08:05:06;;;;;;;16.98;2.67;;;;;;;5.12;100.00;100039.66;5057646;28;20037;-80
2023/01/08 08:07:31;;;;;;;15.95;2.90;;;;;;;5.09;100.00;100043.13;5057058;28;20029;-83
2023/01/08 08:09:56;;;;;;;18.17;3.15;;;;;;;5.11;100.00;100023.06;5053678;28;20029;-78
2023/01/08 08:12:22;;;;;;;15.70;2.90;;;;;;;5.18;100.00;100022.25;5055841;28;20029;-76
2023/01/08 08:14:47;;;;;;;18.30;3.00;;;;;;;5.26;100.00;100006.66;5053691;28;20045;-76
2023/01/08 08:17:12;;;;;;;17.10;3.05;;;;;;;5.34;100.00;100012.00;5058566;28;20082;-78
2023/01/08 08:19:40;;;;;;;17.48;3.10;;;;;;;5.41;100.00;100000.72;5053587;28;20063;-80
2023/01/08 08:22:05;;;;;;;20.00;3.42;;;;;;;5.53;100.00;100006.13;5037656;28;20028;-76
2023/01/08 08:24:30;;;;;;;14.55;2.67;;;;;;;5.62;100.00;99999.22;5053293;28;20425;-78
2023/01/08 08:26:56;;;;;;;15.40;2.70;;;;;;;5.67;100.00;99990.53;5052938;28;20033;-83
2023/01/08 08:29:21;;;;;;;17.77;2.83;;;;;;;5.71;100.00;99996.72;5038950;28;20092;-89
2023/01/08 08:31:46;;;;;;;17.92;3.08;;;;;;;5.73;100.00;99998.47;5035251;28;20067;-80
2023/01/08 08:34:12;;;;;;;16.77;2.90;;;;;;;5.72;100.00;100006.31;5052404;28;20029;-79
2023/01/08 08:36:37;;;;;;;15.35;2.80;;;;;;;5.74;100.00;100001.97;5056909;28;20029;-82
2023/01/08 08:39:03;;;;;;;17.65;2.97;;;;;;;5.74;100.00;100004.59;5053091;28;20025;-85
2023/01/08 08:41:28;;;;;;;15.98;2.72;;;;;;;5.79;100.00;100008.13;5053799;28;20112;-82
2023/01/08 08:43:53;;;;;;;16.90;2.90;;;;;;;5.80;100.00;100007.28;5052640;28;20044;-77
2023/01/08 08:46:19;;;;;;;15.63;2.80;;;;;;;5.87;100.00;100003.84;5057698;28;20027;-79
2023/01/08 08:48:45;;;;;;;16.27;3.03;;;;;;;5.92;100.00;100002.16;5034904;28;20102;-79
2023/01/08 08:51:10;;;;;;;19.73;3.10;;;;;;;6.01;100.00;100003.16;5054723;28;20036;-78
2023/01/08 08:53:36;;;;;;;19.25;3.10;;;;;;;5.99;100.00;99999.63;5051974;28;20411;-79
2023/01/08 08:56:01;;;;;;;17.33;3.00;;;;;;;5.94;100.00;99989.03;5052463;28;20072;-79
2023/01/08 08:58:27;;;;;;;15.50;2.85;;;;;;;5.88;100.00;99996.84;5051493;28;20031;-78
2023/01/08 09:00:52;;;;;;;15.23;3.00;;;;;;;5.84;100.00;99985.47;5037857;28;20039;-73
2023/01/08 09:03:18;;;;;;;18.30;3.38;;;;;;;5.74;100.00;99988.88;5053022;28;20027;-71
2023/01/08 09:05:44;;;;;;;15.50;3.03;;;;;;;5.71;100.00;99980.97;5052478;28;20037;-71
2023/01/08 09:08:10;;;;;;;19.13;3.55;;;;;;;5.64;100.00;99989.63;5057323;28;20029;-71
2023/01/08 09:10:36;;;;;;;17.70;3.10;;;;;;;5.51;100.00;99984.22;5052299;28;20021;-73
2023/01/08 09:13:01;;;;;;;19.50;3.25;;;;;;;5.51;100.00;99978.13;5053137;28;20068;-73
2023/01/08 09:15:27;;;;;;;14.82;3.10;;;;;;;5.44;100.00;99982.41;5052839;28;20021;-71
2023/01/08 09:17:56;;;;;;;17.33;3.40;;;;;;;5.55;100.00;99980.78;5053076;28;20029;-71
2023/01/08 09:20:23;;;;;;;15.77;3.20;;;;;;;5.48;100.00;99984.22;5048951;28;20068;-71
2023/01/08 09:22:48;;;;;;;16.65;3.45;;;;;;;5.48;100.00;99984.22;5052791;28;20029;-72
2023/01/08 09:25:14;;;;;;;17.95;3.20;;;;;;;5.47;100.00;99979.81;5034975;28;20025;-73
2023/01/08 09:27:39;;;;;;;18.02;3.40;;;;;;;5.49;100.00;99980.72;5052894;28;20391;-78
2023/01/08 09:30:05;;;;;;;17.98;3.30;;;;;;;5.53;100.00;99979.00;5052605;28;20086;-72
2023/01/08 09:32:31;;;;;;;17.45;3.30;;;;;;;5.53;100.00;99976.38;5052535;28;20071;-78
2023/01/08 09:34:56;;;;;;;20.70;3.50;;;;;;;5.50;100.00;99969.34;5018459;28;20029;-73
2023/01/08 09:37:22;;;;;;;14.98;3.08;;;;;;;5.50;100.00;99963.25;5048487;28;20112;-72
2023/01/08 09:39:49;;;;;;;16.77;3.20;;;;;;;5.55;100.00;99962.44;5052549;28;20025;-73
2023/01/08 09:42:19;;;;;;;16.70;3.28;;;;;;;5.56;100.00;99952.81;5052592;28;20028;-75
2023/01/08 09:44:47;;;;;;;17.67;3.33;;;;;;;5.54;100.00;99952.81;5052487;28;20082;-73
2023/01/08 09:47:21;;;;;;;18.73;3.10;;;;;;;5.52;100.00;99954.53;5052383;28;20456;-73
2023/01/08 09:49:48;;;;;;;17.38;3.10;;;;;;;5.63;100.00;99952.03;5052602;28;20032;-72
2023/01/08 09:52:14;;;;;;;16.60;3.05;;;;;;;5.74;100.00;99960.88;5052153;28;20402;-79
2023/01/08 09:54:40;;;;;;;19.85;3.30;;;;;;;5.71;100.00;99960.00;5052230;28;20476;-79
2023/01/08 09:57:12;;;;;;;19.33;3.50;;;;;;;5.72;100.00;99960.00;5052436;28;20067;-79
2023/01/08 09:59:38;;;;;;;17.60;3.60;;;;;;;5.72;100.00;99953.84;5052670;28;20361;-79
2023/01/08 10:02:03;;;;;;;17.83;3.20;;;;;;;5.76;100.00;99953.03;5052254;28;20104;-79
2023/01/08 10:04:29;;;;;;;19.80;3.30;;;;;;;5.78;100.00;99951.28;5034437;28;20464;-79
2023/01/08 10:06:55;;;;;;;16.33;3.25;;;;;;;5.80;100.00;99946.09;5034447;28;20036;-79
2023/01/08 10:09:27;;;;;;;16.05;3.22;;;;;;;5.87;100.00;99955.78;5052163;28;20029;-79
2023/01/08 10:11:56;;;;;;;15.73;3.20;;;;;;;5.95;100.00;99954.06;5051565;28;20029;-79
2023/01/08 10:14:28;;;;;;;17.58;3.35;;;;;;;6.07;100.00;99948.09;5052325;28;20056;-79
2023/01/08 10:17:03;;;;;;;17.45;3.33;;;;;;;6.13;100.00;99936.75;5034648;28;20052;-79
2023/01/08 10:19:29;;;;;;;15.88;3.10;;;;;;;6.22;100.00;99942.09;5052998;28;20095;-79
2023/01/08 10:21:55;;;;;;;18.38;3.55;;;;;;;6.32;100.00;99940.41;5056266;28;20033;-79
2023/01/08 10:24:33;;;;;;;17.38;3.42;;;;;;;6.44;100.00;99937.88;5056233;28;20029;-78
2023/01/08 10:27:15;;;;;;;17.08;3.28;;;;;;;6.56;100.00;99930.06;5052911;28;20029;-73
2023/01/08 10:29:41;;;;;;;13.60;3.17;;;;;;;6.61;100.00;99920.50;5055994;28;20112;-73
2023/01/08 10:32:33;;;;;;;14.77;2.90;;;;;;;6.62;100.00;99929.22;5055901;28;20111;-72
2023/01/08 10:35:03;;;;;;;15.90;2.83;;;;;;;6.77;100.00;99931.06;5043993;28;20083;-73
2023/01/08 10:37:37;;;;;;;12.98;2.80;;;;;;;6.96;100.00;99926.78;5055683;28;20498;-72
2023/01/08 10:40:36;;;;;;;10.10;2.40;;;;;;;7.21;100.00;99921.63;5054344;28;20117;-72
2023/01/08 10:43:30;;;;;;;11.85;2.78;;;;;;;7.30;100.00;99919.91;5051843;28;20533;-77
2023/01/08 10:46:00;;;;;;;13.15;3.17;;;;;;;7.88;100.00;99897.22;5052113;28;20169;-77
2023/01/08 10:48:38;;;;;;;12.48;2.47;;;;;;;8.43;100.00;99895.41;5055339;28;20036;-73
2023/01/08 10:51:06;;;;;;;10.35;2.30;;;;;;;9.10;100.00;99907.53;5052586;28;20079;-72
2023/01/08 10:53:32;;;;;;;10.45;2.42;;;;;;;9.63;100.00;99908.09;5055169;28;20454;-75
2023/01/08 10:56:00;;;;;;;8.55;2.10;;;;;;;9.98;100.00;99896.41;5055409;28;20021;-72
2023/01/08 10:58:28;;;;;;;9.32;2.20;;;;;;;10.37;100.00;99894.34;5055838;28;20353;-72
2023/01/08 11:00:54;;;;;;;7.20;2.10;;;;;;;10.73;100.00;99889.56;5055429;28;20033;-72
2023/01/08 11:03:30;;;;;;;4.90;2.10;;;;;;;10.93;100.00;99891.06;5055339;28;20379;-72
2023/01/08 11:05:55;;;;;;;8.27;1.95;;;;;;;11.21;100.00;99896.88;5055323;28;20044;-72
2023/01/08 11:08:21;;;;;;;5.20;1.83;;;;;;;11.33;100.00;99877.34;5055501;28;20021;-76
2023/01/08 11:11:00;;;;;;;3.97;1.73;;;;;;;11.42;100.00;99879.84;5055244;28;20029;-72
2023/01/08 11:13:28;;;;;;;6.40;2.00;;;;;;;11.54;100.00;99883.22;5055063;28;20029;-72
2023/01/08 11:16:06;;;;;;;6.50;1.75;;;;;;;11.79;100.00;99873.09;5055379;28;20090;-73
2023/01/08 11:18:44;;;;;;;3.55;1.70;;;;;;;11.86;100.00;99872.09;5051830;28;20032;-73
2023/01/08 11:21:21;;;;;;;3.88;1.73;;;;;;;12.00;100.00;99862.19;5055060;28;20075;-73